• Join FlightAware (Why Join?)
  • Login
  • US Flag 
10:44PM EDT


 

Airport Tracker/Info


-or-


 

Live Flight TrackerFlight Track Log ✈ SKW6440 ✈ 11-May-2013 ✈ KDTW - KIAD

Flight Track Log - Related Links

Times and Time Zones

All times are in EDT time to prevent confusion due to time zone crossing. See the SKW6440 flight status page for this flight to view local times or setup timezone preferences in your user account.

Time Position Orientation Groundspeed Altitude Reporting Facility
EDT Latitude Longitude Course Direction KTS MPH feet Rate Location/Type
12:51PM 42.2081 -83.3528 190° South 152 175 1,200  Level Cleveland Center
12:52PM 42.1764 -83.3600 190° South 185 213 2,700 2,520 Climbing Cleveland Center
12:53PM 42.1139 -83.3656 184° South 257 296 5,300 2,340 Climbing Cleveland Center
12:55PM 42.0667 -83.1536 107° East 355 409 10,200 2,400 Climbing Cleveland Center
12:56PM 42.0719 -83.0083 87° East 365 420 13,000 3,000 Climbing Cleveland Center
12:58PM 42.0819 -82.7094 87° East 386 444 19,200 3,000 Climbing Cleveland Center
12:59PM 42.0847 -82.5639 88° East 391 450 22,100 2,460 Climbing Cleveland Center
01:00PM 42.0767 -82.4156 94° East 391 450 24,200 1,980 Climbing Cleveland Center
01:01PM 42.0539 -82.2667 102° East 397 457 26,100 1,680 Climbing Cleveland Center
01:02PM 42.0289 -82.1094 102° East 410 472 27,600 1,380 Climbing Cleveland Center
01:03PM 41.9492 -81.9958 133° Southeast 404 465 28,900 660 Climbing Cleveland Center
01:04PM 41.8481 -81.9017 145° Southeast 418 481 29,000  Climbing Cleveland Center
01:05PM 41.7408 -81.7992 144° Southeast 464 534 29,000  Level Cleveland Center
01:06PM 41.6336 -81.6944 144° Southeast 477 549 29,000  Level Cleveland Center
01:07PM 41.5219 -81.5925 146° Southeast 483 556 29,000  Level Cleveland Center
01:08PM 41.4247 -81.4997 144° Southeast 488 562 29,000  Level Cleveland Center
01:09PM 41.3172 -81.3958 144° Southeast 483 556 29,000  Level Cleveland Center
01:10PM 41.1969 -81.2894 146° Southeast 483 556 29,000  Level Cleveland Center
01:11PM 41.0869 -81.1947 147° Southeast 489 563 29,000  Level Cleveland Center
01:12PM 40.9642 -81.1494 164° South 469 540 29,000  Level Cleveland Center
01:13PM 40.8394 -81.1044 165° South 464 534 29,000  Level Cleveland Center
01:14PM 40.7208 -81.0653 166° South 454 522 29,000  Level Cleveland Center
01:15PM 40.6186 -81.0261 164° South 440 506 29,000  Level Cleveland Center
01:16PM 40.5042 -80.9872 166° South 430 495 29,000  Level Cleveland Center
01:17PM 40.3875 -80.9428 164° South 430 495 29,000  Level Cleveland Center
01:18PM 40.2731 -80.9069 167° South 430 495 29,000  Level Cleveland Center
01:19PM 40.1628 -80.8683 165° South 430 495 29,000  Level Cleveland Center
01:20PM 40.0461 -80.8272 165° South 430 495 29,000  Level Cleveland Center
01:21PM 39.9628 -80.7078 132° Southeast 424 488 29,000  Level Cleveland Center
01:22PM 39.8961 -80.5614 121° Southeast 433 498 29,000 -360 Level Cleveland Center
01:23PM 39.8272 -80.4156 122° Southeast 456 525 28,300 -720 Descending Cleveland Center
01:25PM 39.6947 -80.1358 122° Southeast 457 526 27,000 -480 Descending Washington Center
01:26PM 39.6153 -79.9744 123° Southeast 474 545 27,000  Level Washington Center
01:27PM 39.5558 -79.8256 117° Southeast 474 545 27,000  Level Washington Center
01:28PM 39.5222 -79.6542 104° East 474 545 27,000 -120 Level Washington Center
01:29PM 39.4925 -79.4831 103° East 479 551 26,800 -600 Descending Washington Center
01:30PM 39.4622 -79.3172 103° East 479 551 25,800 -1,080 Descending Washington Center
01:31PM 39.4336 -79.1653 104° East 479 551 24,700 -1,620 Descending Washington Center
01:32PM 39.4047 -79.0081 103° East 466 536 22,600 -2,580 Descending Washington Center
01:33PM 39.3797 -78.8647 103° East 441 507 19,600 -3,300 Descending Washington Center
01:34PM 39.3542 -78.7267 103° East 407 468 16,200 -3,180 Descending Washington Center
01:35PM 39.3303 -78.5942 103° East 391 450 13,400 -1,980 Descending Washington Center
01:36PM 39.3064 -78.4669 104° East 371 427 12,300 -1,200 Descending Washington Center
01:37PM 39.2758 -78.3506 109° East 359 413 11,000 -660 Descending Washington Center
01:38PM 39.2300 -78.2575 122° Southeast 325 374 11,000 -600 Level Washington Center
01:39PM 39.2219 -78.1447 95° East 307 353 9,900 -1,140 Descending Washington Center
01:40PM 39.2242 -78.0350 88° East 302 348 8,800 -1,140 Descending Washington Center
01:41PM 39.2264 -77.9253 88° East 297 342 7,700 -1,140 Descending Washington Center
01:42PM 39.2264 -77.8181 90° East 297 342 6,500 -1,200 Descending Washington Center
01:43PM 39.2242 -77.7000 91° East 297 342 5,300 -720 Descending Washington Center
01:44PM 39.2239 -77.5956 90° East 292 336 5,100 -180 Descending Washington Center
01:45PM 39.2000 -77.5333 116° Southeast 263 303 5,000 -660 Descending Potomac TRACON
01:46PM 39.1833 -77.4500 104° East 235 270 4,000 -540 Descending Potomac TRACON
01:47PM 39.1333 -77.4500 180° South 193 222 4,000  Level Potomac TRACON